Time;durP1;ratioP1;P1;durP2;ratioP2;P2;SDS_P1;SDS_P2;PMS_P1;PMS_P2;Temp;Humidity;BMP_temperature;BMP_pressure;BME280_temperature;BME280_humidity;BME280_pressure;Samples;Min_cycle;Max_cycle;Signal;HPM_P1;HPM_P2
2021/06/17 00:01:38;;;;;;;44.72;34.67;;;19.30;75.70;;;;;;5074637;28;19904;-72
2021/06/17 00:04:04;;;;;;;44.97;36.03;;;19.30;75.60;;;;;;5074540;28;20472;-69
2021/06/17 00:06:30;;;;;;;;;;;19.40;75.40;;;;;;5075038;28;20028;-68
2021/06/17 00:08:55;;;;;;;45.30;35.58;;;19.40;75.70;;;;;;5074491;28;20012;-69
2021/06/17 00:11:21;;;;;;;;;;;19.20;76.00;;;;;;5075201;28;20044;-69
2021/06/17 00:13:47;;;;;;;41.10;31.58;;;19.20;76.30;;;;;;5074346;28;19905;-67
2021/06/17 00:16:13;;;;;;;;;;;19.20;76.40;;;;;;5074712;28;20111;-68
2021/06/17 00:18:38;;;;;;;51.95;36.22;;;19.30;75.80;;;;;;5074278;28;19904;-68
2021/06/17 00:21:04;;;;;;;;;;;19.10;76.40;;;;;;5074623;28;20465;-69
2021/06/17 00:23:34;;;;;;;41.33;32.15;;;19.00;77.00;;;;;;5074263;28;19904;-70
2021/06/17 00:26:01;;;;;;;41.38;31.75;;;19.20;76.50;;;;;;5074106;28;20028;-69
2021/06/17 00:28:27;;;;;;;37.30;30.17;;;19.30;75.70;;;;;;5074081;28;20028;-68
2021/06/17 00:30:53;;;;;;;41.42;32.30;;;19.30;76.10;;;;;;5073990;28;20519;-66
2021/06/17 00:33:20;;;;;;;39.72;29.77;;;19.20;76.30;;;;;;5074152;28;20392;-68
2021/06/17 00:35:46;;;;;;;36.95;28.48;;;19.20;76.50;;;;;;5073604;28;20048;-68
2021/06/17 00:38:13;;;;;;;40.15;29.05;;;19.30;76.10;;;;;;5073881;28;20028;-70
2021/06/17 00:40:39;;;;;;;39.97;28.75;;;19.20;76.20;;;;;;5073845;28;20031;-72
2021/06/17 00:43:05;;;;;;;37.70;28.58;;;19.10;76.20;;;;;;5073829;28;20503;-67
2021/06/17 00:45:37;;;;;;;36.30;27.77;;;19.00;76.90;;;;;;5073766;28;20094;-69
2021/06/17 00:48:04;;;;;;;37.20;29.88;;;19.00;77.40;;;;;;5073754;28;20078;-68
2021/06/17 00:50:41;;;;;;;37.42;28.38;;;19.00;77.20;;;;;;5073614;28;20027;-68
2021/06/17 00:53:25;;;;;;;35.63;27.67;;;19.10;77.10;;;;;;5074114;28;20023;-69
2021/06/17 00:55:51;;;;;;;38.55;29.02;;;19.30;76.20;;;;;;5073717;28;20032;-70
2021/06/17 00:58:17;;;;;;;;;;;19.20;76.50;;;;;;5074042;28;20024;-68
2021/06/17 01:00:44;;;;;;;36.42;25.77;;;19.20;76.90;;;;;;5073592;28;19953;-70
2021/06/17 01:03:10;;;;;;;31.63;23.67;;;19.10;76.30;;;;;;5073536;28;20066;-68
2021/06/17 01:05:37;;;;;;;34.00;23.33;;;19.10;76.40;;;;;;5073148;28;20023;-69
2021/06/17 01:08:02;;;;;;;33.00;22.65;;;19.00;76.90;;;;;;5073301;28;20105;-73
2021/06/17 01:11:06;;;;;;;32.60;22.48;;;18.90;77.00;;;;;;5073409;28;20052;-66
2021/06/17 01:13:53;;;;;;;33.45;22.90;;;18.90;76.80;;;;;;5050350;28;20454;-69
2021/06/17 01:16:51;;;;;;;33.70;22.63;;;19.00;76.80;;;;;;5073354;28;20035;-69
2021/06/17 01:19:25;;;;;;;30.23;20.70;;;18.90;77.10;;;;;;5073549;28;20032;-68
2021/06/17 01:22:29;;;;;;;31.60;22.08;;;18.80;77.60;;;;;;5073269;28;20074;-66
2021/06/17 01:25:13;;;;;;;28.60;19.10;;;18.90;76.80;;;;;;5071953;28;20024;-68
2021/06/17 01:28:04;;;;;;;31.05;19.13;;;18.90;77.10;;;;;;5073372;28;20025;-69
2021/06/17 01:30:36;;;;;;;29.80;18.23;;;18.80;77.20;;;;;;5073161;28;20503;-68
2021/06/17 01:33:04;;;;;;;27.13;16.73;;;18.80;76.90;;;;;;5073161;28;20533;-68
2021/06/17 01:35:35;;;;;;;24.17;15.38;;;18.70;76.90;;;;;;5072850;28;20056;-69
2021/06/17 01:38:04;;;;;;;26.48;15.55;;;18.70;76.90;;;;;;5073231;28;20047;-72
2021/06/17 01:40:31;;;;;;;29.30;17.77;;;18.70;76.70;;;;;;5073101;28;20032;-69
2021/06/17 01:42:58;;;;;;;26.83;15.95;;;18.70;76.80;;;;;;5073039;28;20028;-66
2021/06/17 01:45:26;;;;;;;31.10;16.60;;;18.80;76.80;;;;;;5073065;28;20025;-69
2021/06/17 01:47:53;;;;;;;26.30;16.02;;;18.70;76.80;;;;;;5073015;28;20480;-68
2021/06/17 01:50:22;;;;;;;32.10;15.48;;;18.80;76.80;;;;;;5071626;28;20025;-67
2021/06/17 01:52:51;;;;;;;31.35;15.90;;;18.90;76.30;;;;;;5073179;28;20021;-70
2021/06/17 01:55:17;;;;;;;26.33;15.70;;;18.90;76.10;;;;;;5072938;28;20082;-66
2021/06/17 01:57:45;;;;;;;28.02;14.95;;;18.80;76.30;;;;;;5072760;28;20116;-68
2021/06/17 02:00:11;;;;;;;26.50;13.93;;;18.90;76.30;;;;;;5072997;28;20392;-69
2021/06/17 02:02:38;;;;;;;26.40;13.63;;;18.90;76.00;;;;;;5072911;28;20020;-70
2021/06/17 02:05:06;;;;;;;20.98;12.63;;;18.70;76.40;;;;;;5072844;28;20077;-69
2021/06/17 02:07:33;;;;;;;26.90;13.15;;;18.70;76.60;;;;;;5072940;28;20020;-70
2021/06/17 02:10:00;;;;;;;27.77;14.20;;;18.80;76.20;;;;;;5072872;28;20028;-67
2021/06/17 02:12:25;;;;;;;28.17;13.77;;;18.80;76.30;;;;;;5072716;28;20013;-67
2021/06/17 02:14:52;;;;;;;25.10;14.32;;;18.60;76.80;;;;;;5072817;28;20023;-69
2021/06/17 02:17:21;;;;;;;25.33;14.13;;;18.50;76.70;;;;;;5072644;28;20357;-67
2021/06/17 02:19:50;;;;;;;23.67;12.85;;;18.40;77.30;;;;;;5075974;28;20016;-69
2021/06/17 02:22:19;;;;;;;26.38;13.27;;;18.40;77.90;;;;;;5076521;28;20020;-69
2021/06/17 02:24:51;;;;;;;25.52;13.20;;;18.40;77.80;;;;;;5076534;28;20035;-69
2021/06/17 02:27:25;;;;;;;24.60;12.90;;;18.50;77.40;;;;;;5076639;28;20104;-67
2021/06/17 02:29:51;;;;;;;22.88;13.70;;;18.60;77.10;;;;;;5076665;28;20024;-68
2021/06/17 02:32:22;;;;;;;27.90;13.65;;;18.70;77.10;;;;;;5076327;28;20362;-71
2021/06/17 02:34:51;;;;;;;24.70;12.52;;;18.50;77.40;;;;;;5076187;28;20037;-69
2021/06/17 02:37:18;;;;;;;26.67;13.50;;;18.40;78.40;;;;;;5075722;28;20558;-69
2021/06/17 02:39:50;;;;;;;23.63;12.13;;;18.30;79.10;;;;;;5076188;28;20560;-67
2021/06/17 02:42:19;;;;;;;23.90;11.77;;;18.30;79.30;;;;;;5076144;28;20020;-69
2021/06/17 02:44:48;;;;;;;23.33;11.95;;;18.50;78.30;;;;;;5076141;28;20518;-69
2021/06/17 02:47:14;;;;;;;19.77;11.80;;;18.60;77.80;;;;;;5074779;28;20028;-70
2021/06/17 02:49:40;;;;;;;22.50;12.05;;;18.60;78.00;;;;;;5076141;28;20032;-67
2021/06/17 02:52:07;;;;;;;25.17;11.77;;;18.40;78.30;;;;;;5075828;28;20048;-70
2021/06/17 02:54:33;;;;;;;23.60;12.35;;;18.50;78.50;;;;;;5075919;28;20065;-68
2021/06/17 02:57:07;;;;;;;23.60;12.15;;;18.60;77.80;;;;;;5075764;28;20028;-70
2021/06/17 03:00:04;;;;;;;21.98;11.02;;;18.60;77.90;;;;;;5075827;28;20111;-68
2021/06/17 03:02:36;;;;;;;21.05;12.25;;;18.60;78.30;;;;;;5075667;28;20016;-69
2021/06/17 03:05:09;;;;;;;26.27;13.85;;;18.60;78.10;;;;;;5075774;28;20024;-66
2021/06/17 03:07:40;;;;;;;24.42;13.05;;;18.50;78.50;;;;;;5075916;28;20025;-68
2021/06/17 03:10:11;;;;;;;22.58;12.77;;;18.50;78.80;;;;;;5075712;28;20447;-67
2021/06/17 03:12:42;;;;;;;21.75;12.60;;;18.50;78.80;;;;;;5075633;28;20016;-69
2021/06/17 03:15:08;;;;;;;23.10;13.05;;;18.40;79.10;;;;;;5075592;28;20059;-69
2021/06/17 03:17:37;;;;;;;22.38;12.18;;;18.30;79.60;;;;;;5075380;28;20024;-69
2021/06/17 03:20:06;;;;;;;20.15;11.60;;;18.50;79.40;;;;;;5075729;28;20442;-72
2021/06/17 03:22:33;;;;;;;22.25;12.65;;;18.60;78.80;;;;;;5075347;28;20013;-70
2021/06/17 03:25:05;;;;;;;22.48;12.32;;;18.60;78.50;;;;;;5075369;28;20020;-67
2021/06/17 03:27:32;;;;;;;25.63;13.20;;;18.50;78.90;;;;;;5075331;28;20542;-67
2021/06/17 03:30:01;;;;;;;23.90;13.00;;;18.50;79.10;;;;;;5075077;28;20469;-69
2021/06/17 03:32:27;;;;;;;26.92;13.48;;;18.70;79.40;;;;;;5075224;28;20027;-67
2021/06/17 03:34:56;;;;;;;25.63;13.43;;;18.60;78.90;;;;;;5075155;28;20028;-70
2021/06/17 03:37:24;;;;;;;25.17;14.07;;;18.60;79.20;;;;;;5075095;28;20029;-68
2021/06/17 03:39:53;;;;;;;22.23;12.75;;;18.60;79.10;;;;;;5075083;28;20013;-68
2021/06/17 03:42:21;;;;;;;22.92;13.60;;;18.60;79.20;;;;;;5075030;28;20469;-67
2021/06/17 03:44:57;;;;;;;23.95;13.52;;;18.80;78.30;;;;;;5074673;28;20541;-70
2021/06/17 03:47:24;;;;;;;26.58;12.95;;;18.90;78.00;;;;;;5074643;28;20416;-66
2021/06/17 03:49:51;;;;;;;21.25;11.90;;;19.00;77.80;;;;;;5074905;28;20052;-69
2021/06/17 03:52:17;;;;;;;23.98;13.75;;;19.00;77.60;;;;;;5074896;28;20029;-68
2021/06/17 03:54:44;;;;;;;21.08;12.35;;;18.80;78.30;;;;;;5075232;28;20024;-69
2021/06/17 03:57:11;;;;;;;22.85;13.52;;;18.70;79.00;;;;;;5074823;28;20059;-68
2021/06/17 03:59:42;;;;;;;23.80;12.10;;;18.80;78.70;;;;;;5074718;28;20020;-70
2021/06/17 04:02:09;;;;;;;21.50;11.20;;;18.80;78.30;;;;;;5074683;28;20020;-70
2021/06/17 04:04:35;;;;;;;21.40;12.52;;;18.90;78.30;;;;;;5073311;28;20362;-70
2021/06/17 04:07:05;;;;;;;23.92;13.02;;;18.80;78.30;;;;;;5074697;28;20032;-70
2021/06/17 04:09:38;;;;;;;22.23;12.07;;;18.70;78.70;;;;;;5074479;28;20025;-70
2021/06/17 04:12:17;;;;;;;22.52;12.65;;;18.60;79.20;;;;;;5074609;28;20024;-67
2021/06/17 04:14:48;;;;;;;22.33;12.40;;;18.60;79.20;;;;;;5074063;28;20032;-69
2021/06/17 04:17:18;;;;;;;19.38;10.60;;;18.60;79.80;;;;;;5074395;28;20032;-67
2021/06/17 04:19:47;;;;;;;22.75;11.48;;;18.70;79.50;;;;;;5074410;28;20024;-69
2021/06/17 04:22:15;;;;;;;22.23;11.77;;;18.70;79.30;;;;;;5074086;28;20021;-68
2021/06/17 04:24:46;;;;;;;20.92;11.07;;;18.80;78.50;;;;;;5074450;28;20020;-70
2021/06/17 04:27:13;;;;;;;23.95;11.82;;;18.80;78.90;;;;;;5074314;28;20031;-68
2021/06/17 04:29:39;;;;;;;18.95;9.73;;;18.90;78.40;;;;;;5074087;28;20020;-67
2021/06/17 04:32:07;;;;;;;21.33;11.10;;;18.80;78.80;;;;;;5089761;28;20484;-67
2021/06/17 04:34:34;;;;;;;19.48;10.48;;;18.70;78.80;;;;;;5073935;28;20024;-71
2021/06/17 04:37:03;;;;;;;20.63;10.02;;;18.70;79.20;;;;;;5073562;28;20040;-70
2021/06/17 04:39:29;;;;;;;21.13;9.50;;;18.80;78.80;;;;;;5074041;28;20024;-68
2021/06/17 04:41:57;;;;;;;22.27;11.80;;;18.70;79.00;;;;;;5073208;28;20024;-68
2021/06/17 04:44:23;;;;;;;19.63;9.65;;;18.70;79.30;;;;;;5073798;28;20103;-69
2021/06/17 04:46:50;;;;;;;18.15;9.80;;;18.70;79.40;;;;;;5073776;28;20025;-70
2021/06/17 04:49:16;;;;;;;16.02;8.88;;;18.90;78.80;;;;;;5073728;28;20060;-69
2021/06/17 04:51:43;;;;;;;15.45;8.60;;;18.80;78.90;;;;;;5073742;28;20025;-67
2021/06/17 04:54:18;;;;;;;14.68;9.43;;;18.90;78.60;;;;;;5073918;28;20400;-68
2021/06/17 04:56:48;;;;;;;13.93;8.53;;;18.80;78.30;;;;;;5073604;28;20438;-70
2021/06/17 04:59:14;;;;;;;16.35;8.45;;;18.90;78.30;;;;;;5073663;28;20059;-69
2021/06/17 05:01:41;;;;;;;15.63;8.23;;;18.80;78.40;;;;;;5089176;28;20480;-68
2021/06/17 05:04:10;;;;;;;13.25;7.68;;;19.00;77.70;;;;;;5073513;28;20012;-69
2021/06/17 05:06:39;;;;;;;13.80;6.90;;;19.10;77.10;;;;;;5073693;28;20024;-69
2021/06/17 05:11:51;;;;;;;;;;;19.00;77.30;;;;;;5073527;28;20077;-68
2021/06/17 05:14:18;;;;;;;16.50;7.10;;;19.00;77.40;;;;;;5073406;28;19975;-70
2021/06/17 05:16:45;;;;;;;13.70;6.80;;;19.10;77.00;;;;;;5073443;28;20483;-69
2021/06/17 05:19:10;;;;;;;13.45;7.43;;;19.20;76.80;;;;;;5073333;28;20049;-68
2021/06/17 05:21:36;;;;;;;12.25;7.75;;;19.00;77.20;;;;;;5073239;28;20070;-69
2021/06/17 05:24:02;;;;;;;;;;;18.90;77.60;;;;;;5073684;28;20027;-70
2021/06/17 05:26:28;;;;;;;12.63;6.45;;;18.90;77.90;;;;;;5073255;28;19905;-69
2021/06/17 05:28:54;;;;;;;14.65;6.90;;;18.90;77.50;;;;;;5073295;28;20032;-67
2021/06/17 05:31:23;;;;;;;16.42;7.15;;;19.00;77.00;;;;;;5073155;28;20013;-72
2021/06/17 05:33:49;;;;;;;16.33;7.13;;;19.00;77.00;;;;;;5073110;28;20056;-68
2021/06/17 05:36:15;;;;;;;14.18;6.30;;;19.10;76.70;;;;;;5073086;28;20101;-72
2021/06/17 05:38:42;;;;;;;15.35;6.35;;;19.00;77.00;;;;;;5073376;28;20043;-69
2021/06/17 05:41:08;;;;;;;11.73;6.30;;;19.20;76.50;;;;;;5073077;28;20016;-69
2021/06/17 05:43:33;;;;;;;11.23;5.70;;;19.20;76.60;;;;;;5073085;28;20021;-68
2021/06/17 05:45:59;;;;;;;;;;;19.30;76.60;;;;;;5073648;28;20031;-68
2021/06/17 05:48:25;;;;;;;16.52;6.25;;;19.50;76.10;;;;;;5072990;28;19936;-67
2021/06/17 05:50:51;;;;;;;13.40;6.78;;;19.50;75.50;;;;;;5072982;28;20059;-70
2021/06/17 05:53:17;;;;;;;;;;;19.40;76.20;;;;;;5075939;28;20024;-68
2021/06/17 05:55:43;;;;;;;13.35;7.05;;;19.50;76.00;;;;;;5077050;28;19908;-70
2021/06/17 05:58:10;;;;;;;14.82;6.43;;;19.50;76.70;;;;;;5077224;28;20017;-71
2021/06/17 06:00:36;;;;;;;17.35;7.10;;;19.50;77.20;;;;;;5076739;28;20025;-67
2021/06/17 06:03:02;;;;;;;19.52;7.85;;;19.40;78.30;;;;;;5076925;28;20499;-69
2021/06/17 06:05:29;;;;;;;16.00;7.80;;;19.50;77.50;;;;;;5077065;28;20024;-68
2021/06/17 06:07:59;;;;;;;14.98;7.43;;;19.40;78.90;;;;;;5076789;28;20024;-70
2021/06/17 06:10:24;;;;;;;15.73;7.28;;;19.50;78.70;;;;;;5076762;28;20024;-69
2021/06/17 06:12:50;;;;;;;15.38;7.68;;;19.50;78.70;;;;;;5076791;28;20108;-68
2021/06/17 06:15:16;;;;;;;15.38;7.30;;;19.50;78.40;;;;;;5076643;28;20025;-68
2021/06/17 06:17:41;;;;;;;12.32;5.95;;;19.40;78.70;;;;;;5076988;28;20020;-67
2021/06/17 06:20:08;;;;;;;14.73;7.20;;;19.60;78.90;;;;;;5076582;28;20016;-70
2021/06/17 06:22:34;;;;;;;14.52;6.57;;;19.60;78.80;;;;;;5076492;28;20020;-70
2021/06/17 06:25:00;;;;;;;15.77;8.15;;;19.60;78.60;;;;;;5076525;28;20021;-68
2021/06/17 06:27:26;;;;;;;12.93;6.90;;;19.70;77.80;;;;;;5076440;28;20078;-69
2021/06/17 06:29:52;;;;;;;13.88;6.65;;;19.50;78.30;;;;;;5076359;28;20032;-71
2021/06/17 06:32:17;;;;;;;11.60;6.03;;;19.60;78.70;;;;;;5076761;28;20028;-70
2021/06/17 06:34:43;;;;;;;14.30;7.15;;;19.60;79.00;;;;;;5076288;28;20032;-68
2021/06/17 06:37:09;;;;;;;;;;;19.50;79.20;;;;;;5076225;28;20040;-69
2021/06/17 06:39:35;;;;;;;12.77;6.68;;;19.50;79.50;;;;;;5075988;28;19954;-70
2021/06/17 06:42:00;;;;;;;10.95;6.50;;;19.50;79.50;;;;;;5076119;28;20028;-71
2021/06/17 06:44:27;;;;;;;14.38;6.40;;;19.50;79.70;;;;;;5076116;28;20025;-68
2021/06/17 06:46:54;;;;;;;13.45;6.90;;;19.40;79.90;;;;;;5076091;28;20482;-69
2021/06/17 06:49:19;;;;;;;10.68;6.18;;;19.40;80.20;;;;;;5076054;28;20055;-69
2021/06/17 06:51:45;;;;;;;11.27;5.70;;;19.50;79.40;;;;;;5091659;28;20105;-68
2021/06/17 06:54:11;;;;;;;11.82;6.60;;;19.60;79.10;;;;;;5075981;28;20029;-68
2021/06/17 06:56:38;;;;;;;15.05;7.13;;;19.60;78.90;;;;;;5076013;28;20048;-67
2021/06/17 06:59:05;;;;;;;12.50;6.70;;;19.70;78.70;;;;;;5075845;28;20181;-68
2021/06/17 07:01:32;;;;;;;10.13;6.03;;;19.60;78.50;;;;;;5075862;28;20126;-67
2021/06/17 07:03:58;;;;;;;11.07;6.72;;;19.70;78.70;;;;;;5075051;28;20028;-68
2021/06/17 07:06:24;;;;;;;11.52;6.43;;;19.50;78.20;;;;;;5075812;28;20021;-70
2021/06/17 07:08:50;;;;;;;10.65;6.50;;;19.60;79.10;;;;;;5075719;28;20036;-69
2021/06/17 07:11:16;;;;;;;10.45;6.25;;;19.50;79.10;;;;;;5075652;28;20387;-67
2021/06/17 07:13:41;;;;;;;15.45;6.68;;;19.70;79.30;;;;;;5075574;28;20033;-68
2021/06/17 07:16:07;;;;;;;9.43;5.70;;;19.60;79.00;;;;;;5075497;28;20081;-70
2021/06/17 07:18:33;;;;;;;11.75;6.40;;;19.50;79.30;;;;;;5075457;28;20492;-70
2021/06/17 07:20:59;;;;;;;9.32;5.90;;;19.60;78.40;;;;;;5075486;28;20092;-69
2021/06/17 07:23:27;;;;;;;10.23;6.28;;;19.60;78.40;;;;;;5075427;28;20045;-68
2021/06/17 07:25:54;;;;;;;10.40;6.30;;;19.50;78.80;;;;;;5075384;28;20389;-68
2021/06/17 07:28:19;;;;;;;9.93;5.85;;;19.40;78.80;;;;;;5075258;28;20048;-72
2021/06/17 07:30:45;;;;;;;10.68;5.63;;;19.40;79.20;;;;;;5075301;28;20071;-69
2021/06/17 07:33:11;;;;;;;13.55;6.70;;;19.50;78.40;;;;;;5075276;28;20076;-70
2021/06/17 07:35:37;;;;;;;10.68;6.00;;;19.40;79.30;;;;;;5074909;28;20048;-68
2021/06/17 07:38:03;;;;;;;12.13;6.93;;;19.30;79.50;;;;;;5075196;28;20054;-70
2021/06/17 07:40:29;;;;;;;10.60;5.95;;;19.30;79.50;;;;;;5075105;28;20059;-68
2021/06/17 07:42:55;;;;;;;11.35;5.60;;;19.20;79.80;;;;;;5075056;28;20013;-67
2021/06/17 07:45:23;;;;;;;9.82;5.35;;;19.20;80.20;;;;;;5075022;28;20023;-68
2021/06/17 07:47:49;;;;;;;10.95;6.00;;;19.20;80.40;;;;;;5090565;28;20028;-69
2021/06/17 07:50:15;;;;;;;9.90;5.68;;;19.20;80.00;;;;;;5074941;28;20021;-70
2021/06/17 07:52:42;;;;;;;11.50;5.60;;;19.00;80.80;;;;;;5074890;28;20120;-67
2021/06/17 07:55:08;;;;;;;10.35;5.40;;;19.00;81.40;;;;;;5074830;28;20039;-68
2021/06/17 07:57:34;;;;;;;9.57;5.22;;;19.20;80.80;;;;;;5074709;28;20111;-68
2021/06/17 08:00:00;;;;;;;14.18;5.25;;;19.20;80.70;;;;;;5074728;28;20051;-71
2021/06/17 08:02:26;;;;;;;12.98;5.40;;;19.30;80.60;;;;;;5074650;28;20027;-67
2021/06/17 08:04:53;;;;;;;9.43;4.93;;;19.20;81.10;;;;;;5074630;28;20016;-70
2021/06/17 08:07:19;;;;;;;9.65;5.22;;;19.10;81.00;;;;;;5074837;28;20095;-66
2021/06/17 08:09:44;;;;;;;11.25;4.55;;;19.10;81.50;;;;;;5074502;28;20108;-69
2021/06/17 08:12:10;;;;;;;11.07;4.38;;;19.10;81.70;;;;;;5074877;28;20028;-68
2021/06/17 08:14:36;;;;;;;9.07;3.97;;;19.20;80.70;;;;;;5074476;28;20372;-69
2021/06/17 08:17:02;;;;;;;7.95;4.18;;;19.00;80.70;;;;;;5073271;28;20032;-69
2021/06/17 08:19:32;;;;;;;8.63;3.58;;;19.10;80.90;;;;;;5074485;28;20013;-70
2021/06/17 08:22:02;;;;;;;6.95;3.38;;;19.30;80.70;;;;;;5089835;28;20027;-68
2021/06/17 08:24:28;;;;;;;11.07;3.70;;;19.30;80.70;;;;;;5074256;28;20017;-69
2021/06/17 08:26:56;;;;;;;7.95;3.33;;;19.50;79.50;;;;;;5074182;28;20029;-69
2021/06/17 08:29:22;;;;;;;8.20;3.60;;;19.60;79.40;;;;;;5074113;28;20048;-71
2021/06/17 08:31:49;;;;;;;7.20;3.55;;;19.60;79.60;;;;;;5074111;28;20028;-69
2021/06/17 08:34:15;;;;;;;8.35;3.80;;;19.50;79.70;;;;;;5074424;28;20035;-70
2021/06/17 08:36:41;;;;;;;6.18;3.30;;;19.50;79.70;;;;;;5073709;28;20123;-68
2021/06/17 08:39:07;;;;;;;7.68;3.22;;;19.50;79.40;;;;;;5073962;28;20008;-69
2021/06/17 08:41:34;;;;;;;7.85;2.95;;;19.50;79.30;;;;;;5073880;28;20035;-68
2021/06/17 08:44:00;;;;;;;6.47;3.13;;;19.50;79.20;;;;;;5073848;28;20024;-70
2021/06/17 08:46:26;;;;;;;6.72;2.90;;;19.50;78.40;;;;;;5073830;28;20028;-67
2021/06/17 08:48:52;;;;;;;7.03;3.25;;;19.50;78.30;;;;;;5073811;28;20100;-69
2021/06/17 08:51:19;;;;;;;7.15;3.10;;;19.50;78.40;;;;;;5073833;28;20063;-67
2021/06/17 08:53:47;;;;;;;6.57;2.88;;;19.70;77.90;;;;;;5073726;28;20021;-67
2021/06/17 08:56:13;;;;;;;5.53;2.70;;;19.80;77.20;;;;;;5072304;28;20498;-69
2021/06/17 08:58:39;;;;;;;6.93;2.80;;;20.10;77.20;;;;;;5073467;28;20159;-68
2021/06/17 09:01:12;;;;;;;4.40;2.58;;;20.50;76.20;;;;;;5073393;28;20104;-70
2021/06/17 09:03:40;;;;;;;5.22;2.40;;;21.00;74.40;;;;;;5073613;28;20515;-71
2021/06/17 09:06:06;;;;;;;5.78;2.70;;;21.40;73.20;;;;;;5072068;28;20433;-68
2021/06/17 09:08:34;;;;;;;5.28;2.42;;;21.60;72.10;;;;;;5073604;28;20024;-68
2021/06/17 09:11:02;;;;;;;5.55;2.13;;;21.50;71.30;;;;;;5073454;28;20031;-69
2021/06/17 09:13:30;;;;;;;5.30;2.13;;;21.30;72.20;;;;;;5073402;28;20024;-70
2021/06/17 09:15:56;;;;;;;4.07;2.17;;;21.20;71.80;;;;;;5073304;28;20051;-70
2021/06/17 09:18:26;;;;;;;4.05;2.10;;;20.90;72.60;;;;;;5073480;28;20024;-67
2021/06/17 09:21:04;;;;;;;4.40;1.88;;;20.70;74.10;;;;;;5073312;28;20021;-69
2021/06/17 09:23:35;;;;;;;4.38;1.90;;;20.60;74.20;;;;;;5073257;28;20017;-67
2021/06/17 09:26:03;;;;;;;3.80;1.90;;;20.60;74.80;;;;;;5073182;28;20020;-69
2021/06/17 09:28:44;;;;;;;3.80;1.90;;;20.50;75.00;;;;;;5073015;28;20070;-68
2021/06/17 09:31:22;;;;;;;2.90;1.90;;;20.20;75.20;;;;;;5073271;28;20034;-69
2021/06/17 09:33:49;;;;;;;5.57;2.30;;;20.10;76.60;;;;;;5073152;28;20032;-68
2021/06/17 09:36:16;;;;;;;6.55;2.20;;;19.90;75.60;;;;;;5072638;28;20162;-70
2021/06/17 09:38:48;;;;;;;4.30;2.30;;;19.80;76.40;;;;;;5072055;28;20041;-70
2021/06/17 09:41:37;;;;;;;7.13;2.78;;;19.80;76.10;;;;;;5073117;28;20537;-67
2021/06/17 09:44:05;;;;;;;6.78;2.88;;;20.10;74.70;;;;;;5073097;28;20459;-69
2021/06/17 09:46:31;;;;;;;6.00;2.60;;;20.10;74.50;;;;;;5073216;28;20105;-70
2021/06/17 09:49:07;;;;;;;7.63;3.40;;;20.10;74.60;;;;;;5073027;28;20056;-68
2021/06/17 09:51:42;;;;;;;8.07;3.13;;;20.20;73.00;;;;;;5073091;28;20028;-68
2021/06/17 09:54:31;;;;;;;5.88;2.30;;;20.20;74.00;;;;;;5072972;28;20031;-69
2021/06/17 09:57:02;;;;;;;6.13;2.60;;;20.20;73.20;;;;;;5088177;28;20056;-69
2021/06/17 09:59:55;;;;;;;6.85;2.80;;;20.10;73.80;;;;;;5072872;28;20395;-68
2021/06/17 10:02:24;;;;;;;6.32;2.55;;;20.00;73.30;;;;;;5071271;28;20112;-67
2021/06/17 10:05:07;;;;;;;8.27;2.50;;;19.90;74.30;;;;;;5073254;28;20021;-67
2021/06/17 10:07:34;;;;;;;4.97;2.30;;;20.00;72.70;;;;;;5073029;28;20025;-69
2021/06/17 10:10:00;;;;;;;5.38;2.22;;;20.30;73.40;;;;;;5072819;28;20024;-69
2021/06/17 10:12:26;;;;;;;5.68;2.33;;;20.80;71.70;;;;;;5072789;28;20043;-70
2021/06/17 10:14:53;;;;;;;6.82;2.40;;;21.00;71.00;;;;;;5073228;28;20027;-69
2021/06/17 10:17:19;;;;;;;6.93;2.47;;;21.20;70.80;;;;;;5072671;28;20020;-70
2021/06/17 10:19:47;;;;;;;6.70;2.40;;;21.20;69.40;;;;;;5072840;28;20059;-69
2021/06/17 10:22:13;;;;;;;6.88;2.40;;;21.10;69.80;;;;;;5072710;28;20082;-68
2021/06/17 10:24:40;;;;;;;5.68;2.22;;;20.90;71.00;;;;;;5072629;28;20032;-69
2021/06/17 10:27:12;;;;;;;4.93;2.35;;;21.00;70.50;;;;;;5072649;28;20025;-70
2021/06/17 10:29:42;;;;;;;8.02;2.58;;;20.80;71.70;;;;;;5072777;28;20029;-70
2021/06/17 10:32:13;;;;;;;5.72;2.40;;;20.80;72.00;;;;;;5072601;28;20495;-67
2021/06/17 10:34:42;;;;;;;6.60;2.40;;;20.60;72.90;;;;;;5072548;28;20099;-68
2021/06/17 10:37:17;;;;;;;6.65;2.40;;;20.60;72.50;;;;;;5072106;28;20127;-71
2021/06/17 10:39:53;;;;;;;5.82;2.58;;;20.60;72.70;;;;;;5074005;28;20060;-69
2021/06/17 10:42:31;;;;;;;6.18;2.28;;;20.60;72.80;;;;;;5076367;28;20025;-68
2021/06/17 10:45:33;;;;;;;7.63;2.80;;;20.50;72.90;;;;;;5076416;28;20078;-67
2021/06/17 10:48:01;;;;;;;6.15;2.50;;;20.40;72.00;;;;;;5076101;28;20028;-68
2021/06/17 10:50:39;;;;;;;6.63;2.72;;;20.50;73.30;;;;;;5076110;28;20020;-71
2021/06/17 10:53:20;;;;;;;8.32;2.72;;;20.50;73.50;;;;;;5076202;28;20090;-70
2021/06/17 10:55:52;;;;;;;7.78;2.80;;;20.40;73.70;;;;;;5075916;28;20392;-68
2021/06/17 10:58:41;;;;;;;8.60;2.50;;;20.50;74.30;;;;;;5075939;28;20029;-67
2021/06/17 11:01:36;;;;;;;6.43;2.35;;;20.50;74.60;;;;;;5075810;28;20077;-70
2021/06/17 11:04:09;;;;;;;7.65;2.70;;;20.60;73.90;;;;;;5075786;28;20021;-69
2021/06/17 11:06:56;;;;;;;10.48;3.05;;;20.60;73.70;;;;;;5074248;28;20373;-68
2021/06/17 11:09:45;;;;;;;6.55;2.90;;;20.60;73.60;;;;;;5076000;28;20384;-70
2021/06/17 11:12:17;;;;;;;8.77;3.00;;;20.70;73.90;;;;;;5075702;28;20032;-68
2021/06/17 11:14:45;;;;;;;6.55;2.80;;;20.90;73.70;;;;;;5075759;28;20039;-68
2021/06/17 11:17:29;;;;;;;8.02;3.40;;;21.30;72.70;;;;;;5075721;28;20020;-68
2021/06/17 11:20:21;;;;;;;7.57;2.92;;;21.50;72.00;;;;;;5075623;28;20029;-71
2021/06/17 11:22:50;;;;;;;7.78;3.00;;;21.70;71.60;;;;;;5075625;28;20103;-70
2021/06/17 11:25:16;;;;;;;9.48;3.45;;;21.90;71.00;;;;;;5075396;28;20025;-68
2021/06/17 11:28:06;;;;;;;7.85;3.20;;;22.00;70.20;;;;;;5075486;28;20078;-69
2021/06/17 11:30:38;;;;;;;7.57;2.70;;;22.20;69.40;;;;;;5075300;28;20033;-70
2021/06/17 11:33:19;;;;;;;7.78;2.47;;;22.30;69.30;;;;;;5075259;28;20032;-67
2021/06/17 11:35:47;;;;;;;8.43;2.20;;;22.50;68.60;;;;;;5075130;28;20127;-66
2021/06/17 11:38:13;;;;;;;8.10;2.30;;;22.50;67.00;;;;;;5075144;28;20028;-73
2021/06/17 11:40:39;;;;;;;7.38;2.28;;;22.30;68.10;;;;;;5075071;28;20021;-70
2021/06/17 11:43:05;;;;;;;7.90;2.40;;;22.10;68.50;;;;;;5075107;28;20031;-70
2021/06/17 11:45:33;;;;;;;6.20;2.20;;;22.00;68.10;;;;;;5075067;28;20483;-67
2021/06/17 11:48:03;;;;;;;6.88;2.30;;;22.10;68.40;;;;;;5073706;28;20396;-70
2021/06/17 11:50:30;;;;;;;7.55;2.35;;;22.10;68.30;;;;;;5074719;28;20482;-70
2021/06/17 11:52:57;;;;;;;6.88;2.47;;;22.10;68.40;;;;;;5074868;28;20013;-70
2021/06/17 11:55:25;;;;;;;6.25;2.40;;;22.00;68.90;;;;;;5075265;28;20126;-67
2021/06/17 11:57:51;;;;;;;6.22;2.30;;;22.00;67.90;;;;;;5090309;28;20031;-70
2021/06/17 12:00:31;;;;;;;5.60;2.28;;;21.90;68.30;;;;;;5074759;28;20017;-71
2021/06/17 12:02:57;;;;;;;7.00;2.60;;;21.90;68.90;;;;;;5074988;28;20432;-68
2021/06/17 12:05:23;;;;;;;7.28;2.60;;;21.90;68.70;;;;;;5074447;28;20104;-70
2021/06/17 12:07:50;;;;;;;7.35;2.47;;;22.00;68.10;;;;;;5074580;28;20024;-67
2021/06/17 12:10:19;;;;;;;7.88;2.50;;;22.10;67.10;;;;;;5074571;28;20024;-69
2021/06/17 12:12:53;;;;;;;9.18;2.53;;;22.00;67.80;;;;;;5074462;28;20108;-67
2021/06/17 12:15:37;;;;;;;6.95;2.40;;;22.10;69.10;;;;;;5074424;28;20029;-73
2021/06/17 12:18:09;;;;;;;6.40;2.20;;;22.10;68.70;;;;;;5074315;28;20380;-69
2021/06/17 12:20:40;;;;;;;6.72;2.30;;;21.80;68.90;;;;;;5074489;28;20028;-69
2021/06/17 12:23:09;;;;;;;6.65;2.40;;;21.80;69.30;;;;;;5074232;28;20024;-66
2021/06/17 12:25:40;;;;;;;7.55;2.25;;;21.70;68.70;;;;;;5074243;28;20047;-69
2021/06/17 12:28:08;;;;;;;5.45;2.08;;;21.60;69.30;;;;;;5074211;28;20056;-71
2021/06/17 12:31:00;;;;;;;7.90;2.50;;;21.60;69.50;;;;;;5074096;28;20366;-71
2021/06/17 12:33:34;;;;;;;8.05;2.63;;;21.60;68.90;;;;;;5071943;28;20166;-68
2021/06/17 12:36:02;;;;;;;7.03;2.60;;;21.50;70.20;;;;;;5074071;28;20127;-69
2021/06/17 12:38:37;;;;;;;5.07;2.13;;;21.50;69.50;;;;;;5073963;28;20025;-68
2021/06/17 12:41:18;;;;;;;6.32;2.55;;;21.80;69.30;;;;;;5074195;28;20013;-69
2021/06/17 12:43:54;;;;;;;5.00;2.28;;;22.00;68.10;;;;;;5074136;28;20024;-68
2021/06/17 12:46:26;;;;;;;5.47;2.10;;;22.10;66.90;;;;;;5074033;28;20025;-70
2021/06/17 12:54:41;;;;;;;7.95;2.60;;;22.00;67.30;;;;;;5073674;28;20039;-68
2021/06/17 12:57:14;;;;;;;8.38;2.60;;;21.90;66.50;;;;;;5073639;28;20021;-71
2021/06/17 12:59:48;;;;;;;9.27;2.80;;;21.50;67.90;;;;;;5073645;28;20020;-69
2021/06/17 13:02:23;;;;;;;8.35;2.53;;;21.20;68.30;;;;;;5073211;28;20017;-71